createdAt,value
2022-08-26T00:00:08.458Z,20.75
2022-08-26T00:02:13.074Z,21.80
2022-08-26T00:04:16.248Z,22.25
2022-08-26T00:06:20.908Z,21.67
2022-08-26T00:08:24.228Z,23.05
2022-08-26T00:10:27.413Z,21.73
2022-08-26T00:12:36.201Z,22.15
2022-08-26T00:14:41.028Z,21.98
2022-08-26T00:16:47.479Z,20.77
2022-08-26T00:18:51.444Z,19.90
2022-08-26T00:20:54.799Z,21.17
2022-08-26T00:22:58.445Z,19.98
2022-08-26T00:25:01.642Z,21.15
2022-08-26T00:27:06.385Z,20.40
2022-08-26T00:29:09.736Z,19.98
2022-08-26T00:31:13.611Z,21.98
2022-08-26T00:33:20.561Z,20.92
2022-08-26T00:35:24.096Z,20.58
2022-08-26T00:37:27.133Z,20.85
2022-08-26T00:39:30.677Z,21.80
2022-08-26T00:41:33.974Z,20.75
2022-08-26T00:43:46.144Z,21.80
2022-08-26T00:45:57.489Z,21.20
2022-08-26T00:48:04.825Z,20.85
2022-08-26T00:50:15.859Z,20.13
2022-08-26T00:52:21.710Z,21.50
2022-08-26T00:54:28.787Z,20.00
2022-08-26T00:56:34.448Z,21.20
2022-08-26T00:58:39.427Z,20.63
2022-08-26T01:00:45.250Z,21.65
2022-08-26T01:02:49.392Z,21.33
2022-08-26T01:04:56.119Z,21.63
2022-08-26T01:07:03.039Z,21.55
2022-08-26T01:09:06.818Z,22.25
2022-08-26T01:11:11.191Z,21.30
2022-08-26T01:13:14.742Z,22.08
2022-08-26T01:15:21.971Z,23.35
2022-08-26T01:17:25.173Z,21.20
2022-08-26T01:19:31.769Z,21.15
2022-08-26T01:21:43.728Z,20.65
2022-08-26T01:23:51.737Z,20.90
2022-08-26T01:26:06.423Z,21.38
2022-08-26T01:28:15.269Z,21.92
2022-08-26T01:30:19.841Z,21.17
2022-08-26T01:32:24.228Z,21.23
2022-08-26T01:34:30.037Z,20.52
2022-08-26T01:36:33.236Z,19.70
2022-08-26T01:38:36.237Z,20.23
2022-08-26T01:40:42.614Z,22.13
2022-08-26T01:42:46.599Z,23.08
2022-08-26T01:44:54.801Z,21.17
2022-08-26T01:47:00.988Z,22.50
2022-08-26T01:49:08.029Z,21.70
2022-08-26T01:51:12.214Z,21.73
2022-08-26T01:53:18.552Z,21.75
2022-08-26T01:55:32.141Z,21.08
2022-08-26T01:57:39.095Z,20.48
2022-08-26T01:59:42.294Z,21.98
2022-08-26T02:01:45.380Z,20.95
2022-08-26T02:03:56.444Z,22.20
2022-08-26T02:06:05.087Z,21.02
2022-08-26T02:08:13.298Z,20.15
2022-08-26T02:10:16.850Z,20.88
2022-08-26T02:12:23.293Z,21.27
2022-08-26T02:14:33.393Z,22.85
2022-08-26T02:16:42.222Z,20.25
2022-08-26T02:18:47.004Z,21.08
2022-08-26T02:20:52.362Z,20.75
2022-08-26T02:22:54.944Z,21.90
2022-08-26T02:24:59.979Z,21.42
2022-08-26T02:27:02.598Z,21.35
2022-08-26T02:29:10.880Z,22.02
2022-08-26T02:31:17.673Z,22.85
2022-08-26T02:33:20.684Z,22.33
2022-08-26T02:35:24.628Z,22.40
2022-08-26T02:37:29.334Z,22.70
2022-08-26T02:39:34.682Z,22.98
2022-08-26T02:41:45.232Z,21.08
2022-08-26T02:43:51.413Z,21.90
2022-08-26T02:45:54.823Z,21.38
2022-08-26T02:48:03.284Z,20.38
2022-08-26T02:50:07.866Z,20.50
2022-08-26T02:52:11.708Z,20.80
2022-08-26T02:54:14.739Z,21.67
2022-08-26T02:56:17.762Z,20.90
2022-08-26T02:58:21.266Z,22.13
2022-08-26T03:00:25.107Z,20.85
2022-08-26T03:02:29.002Z,21.42
2022-08-26T03:04:34.845Z,21.92
2022-08-26T03:06:38.409Z,22.60
2022-08-26T03:08:41.476Z,22.88
2022-08-26T03:10:45.096Z,21.80
2022-08-26T03:12:48.845Z,22.45
2022-08-26T03:14:51.807Z,21.58
2022-08-26T03:16:56.119Z,20.88
2022-08-26T03:19:00.267Z,23.05
2022-08-26T03:21:09.688Z,20.95
2022-08-26T03:23:12.740Z,21.08
2022-08-26T03:25:16.804Z,20.75
2022-08-26T03:27:19.913Z,19.33
2022-08-26T03:29:24.357Z,19.10
2022-08-26T03:31:27.670Z,20.65
2022-08-26T03:33:35.902Z,21.83
2022-08-26T03:35:40.889Z,21.05
2022-08-26T03:37:46.556Z,21.02
2022-08-26T03:39:49.614Z,21.05
2022-08-26T03:41:52.610Z,20.77
2022-08-26T03:43:59.696Z,20.25
2022-08-26T03:46:05.428Z,19.73
2022-08-26T03:48:08.960Z,20.38
2022-08-26T03:50:14.884Z,21.25
2022-08-26T03:52:18.103Z,20.35
2022-08-26T03:54:23.738Z,21.00
2022-08-26T03:56:27.060Z,21.27
2022-08-26T03:58:30.012Z,20.35
2022-08-26T04:00:33.072Z,21.42
2022-08-26T04:02:37.575Z,20.17
2022-08-26T04:04:40.632Z,20.40
2022-08-26T04:06:44.816Z,20.05
2022-08-26T04:08:47.978Z,22.10
2022-08-26T04:10:53.752Z,20.85
2022-08-26T04:12:58.936Z,19.95
2022-08-26T04:15:09.925Z,20.38
2022-08-26T04:17:13.370Z,19.02
2022-08-26T04:19:17.852Z,19.65
2022-08-26T04:21:21.260Z,20.20
2022-08-26T04:23:24.199Z,20.02
2022-08-26T04:25:27.756Z,21.05
2022-08-26T04:27:33.744Z,20.52
2022-08-26T04:29:37.310Z,20.00
2022-08-26T04:31:44.236Z,20.27
2022-08-26T04:33:49.754Z,20.20
2022-08-26T04:36:00.286Z,20.92
2022-08-26T04:38:03.537Z,21.10
2022-08-26T04:40:09.893Z,24.05
2022-08-26T04:42:13.029Z,23.38
2022-08-26T04:44:18.696Z,24.50
2022-08-26T04:46:24.192Z,23.95
2022-08-26T04:48:29.131Z,24.35
2022-08-26T04:50:32.580Z,23.05
2022-08-26T04:52:35.703Z,23.67
2022-08-26T04:54:38.749Z,23.52
2022-08-26T04:56:46.834Z,22.77
2022-08-26T04:58:51.191Z,21.40
2022-08-26T05:00:57.114Z,21.08
2022-08-26T05:03:00.357Z,20.92
2022-08-26T05:05:04.294Z,21.35
2022-08-26T05:07:07.284Z,21.50
2022-08-26T05:09:10.325Z,19.75
2022-08-26T05:11:13.440Z,19.30
2022-08-26T05:13:18.686Z,19.10
2022-08-26T05:15:23.657Z,18.02
2022-08-26T05:17:29.262Z,20.48
2022-08-26T05:19:32.715Z,20.15
2022-08-26T05:21:36.433Z,19.00
2022-08-26T05:23:39.669Z,20.20
2022-08-26T05:25:45.043Z,19.55
2022-08-26T05:27:48.028Z,20.58
2022-08-26T05:29:54.641Z,21.13
2022-08-26T05:31:57.784Z,21.55
2022-08-26T05:34:04.174Z,20.90
2022-08-26T05:36:09.104Z,19.58
2022-08-26T05:38:14.657Z,20.63
2022-08-26T05:40:17.894Z,20.10
2022-08-26T05:42:22.513Z,20.10
2022-08-26T05:44:25.621Z,20.52
2022-08-26T05:46:29.289Z,18.23
2022-08-26T05:48:32.327Z,19.40
2022-08-26T05:50:41.497Z,20.92
2022-08-26T05:52:45.566Z,20.65
2022-08-26T05:54:48.200Z,20.55
2022-08-26T05:56:51.111Z,20.83
2022-08-26T05:58:55.109Z,21.23
2022-08-26T06:01:01.639Z,21.85
2022-08-26T06:03:06.284Z,21.35
2022-08-26T06:05:11.290Z,18.90
2022-08-26T06:07:16.994Z,19.15
2022-08-26T06:09:21.542Z,17.77
2022-08-26T06:11:25.790Z,20.25
2022-08-26T06:13:30.233Z,20.92
2022-08-26T06:15:35.107Z,20.30
2022-08-26T06:17:38.156Z,19.58
2022-08-26T06:19:41.370Z,19.95
2022-08-26T06:21:47.578Z,20.38
2022-08-26T06:24:02.343Z,20.52
2022-08-26T06:26:05.946Z,19.58
2022-08-26T06:28:09.038Z,19.40
2022-08-26T06:30:13.090Z,20.00
2022-08-26T06:32:16.462Z,19.10
2022-08-26T06:34:19.513Z,19.58
2022-08-26T06:36:24.839Z,18.88
2022-08-26T06:38:28.545Z,17.30
2022-08-26T06:40:34.611Z,17.15
2022-08-26T06:42:38.266Z,17.40
2022-08-26T06:44:44.766Z,16.98
2022-08-26T06:46:50.416Z,16.67
2022-08-26T06:48:54.963Z,15.68
2022-08-26T06:51:09.324Z,16.00
2022-08-26T06:53:13.287Z,15.35
2022-08-26T06:55:17.362Z,16.30
2022-08-26T06:57:24.005Z,14.88
2022-08-26T06:59:27.270Z,14.95
2022-08-26T07:01:32.534Z,14.85
2022-08-26T07:03:39.836Z,14.32
2022-08-26T07:05:42.978Z,14.65
2022-08-26T07:07:47.481Z,15.80
2022-08-26T07:09:52.573Z,14.52
2022-08-26T07:11:56.636Z,15.18
2022-08-26T07:14:02.259Z,13.93
2022-08-26T07:16:06.223Z,13.52
2022-08-26T07:18:09.373Z,12.70
2022-08-26T07:20:12.714Z,12.85
2022-08-26T07:22:15.908Z,13.07
2022-08-26T07:24:19.354Z,13.98
2022-08-26T07:26:25.501Z,12.57
2022-08-26T07:28:31.545Z,12.50
2022-08-26T07:30:39.542Z,11.43
2022-08-26T07:32:43.770Z,12.52
2022-08-26T07:34:46.917Z,13.63
2022-08-26T07:36:49.920Z,12.85
2022-08-26T07:38:53.283Z,13.00
2022-08-26T07:40:56.213Z,12.98
2022-08-26T07:43:00.944Z,12.15
2022-08-26T07:45:05.145Z,13.50
2022-08-26T07:47:24.932Z,12.82
2022-08-26T07:49:29.090Z,11.63
2022-08-26T07:51:33.046Z,13.30
2022-08-26T07:53:36.406Z,11.90
2022-08-26T07:55:39.669Z,12.07
2022-08-26T07:57:44.641Z,12.98
2022-08-26T07:59:48.846Z,10.70
2022-08-26T08:01:52.366Z,11.68
2022-08-26T08:03:58.496Z,10.30
2022-08-26T08:06:01.565Z,10.27
2022-08-26T08:08:26.664Z,10.30
2022-08-26T08:10:31.989Z,9.18
2022-08-26T08:12:35.225Z,9.52
2022-08-26T08:14:38.252Z,10.50
2022-08-26T08:16:46.060Z,10.20
2022-08-26T08:18:50.099Z,9.97
2022-08-26T08:21:10.907Z,9.45
2022-08-26T08:23:18.756Z,9.25
2022-08-26T08:25:22.251Z,10.02
2022-08-26T08:27:25.259Z,9.68
2022-08-26T08:29:29.306Z,10.30
2022-08-26T08:33:56.877Z,9.68
2022-08-26T08:36:05.704Z,10.20
2022-08-26T08:38:12.442Z,10.30
2022-08-26T08:40:16.562Z,10.32
2022-08-26T08:42:38.138Z,9.63
2022-08-26T08:44:46.467Z,9.48
2022-08-26T08:47:01.268Z,9.68
2022-08-26T08:49:04.374Z,8.97
2022-08-26T08:51:19.099Z,9.20
2022-08-26T08:53:34.148Z,8.82
2022-08-26T08:55:58.282Z,8.80
2022-08-26T08:58:08.101Z,9.80
2022-08-26T09:00:16.816Z,8.15
2022-08-26T09:02:26.700Z,8.68
2022-08-26T09:05:02.638Z,9.65
2022-08-26T09:07:13.257Z,8.50
2022-08-26T09:09:22.535Z,8.40
2022-08-26T09:11:25.589Z,7.95
2022-08-26T09:13:29.360Z,7.65
2022-08-26T09:15:50.135Z,8.45
2022-08-26T09:18:00.320Z,8.40
2022-08-26T09:20:09.573Z,9.05
2022-08-26T09:22:29.124Z,9.27
2022-08-26T09:26:45.206Z,9.50
2022-08-26T09:28:56.333Z,8.32
2022-08-26T09:31:05.706Z,9.20
2022-08-26T09:33:17.530Z,8.57
2022-08-26T09:35:25.801Z,9.48
2022-08-26T09:37:41.985Z,8.80
2022-08-26T09:39:46.613Z,8.57
2022-08-26T09:42:03.491Z,8.30
2022-08-26T09:44:24.530Z,8.50
2022-08-26T09:46:28.555Z,7.35
2022-08-26T09:48:36.135Z,8.52
2022-08-26T09:50:52.022Z,7.53
2022-08-26T09:53:16.430Z,7.55
2022-08-26T09:55:23.030Z,7.47
2022-08-26T09:57:28.562Z,7.15
2022-08-26T09:59:31.954Z,8.07
2022-08-26T10:01:37.040Z,8.23
2022-08-26T10:03:41.728Z,7.35
2022-08-26T10:05:56.028Z,6.72
2022-08-26T10:07:59.912Z,7.43
2022-08-26T10:10:07.879Z,7.90
2022-08-26T10:12:15.917Z,7.70
2022-08-26T10:14:24.315Z,8.00
2022-08-26T10:16:32.476Z,7.20
2022-08-26T10:18:38.851Z,7.25
2022-08-26T10:20:51.331Z,6.80
2022-08-26T10:23:01.018Z,7.78
2022-08-26T10:25:11.564Z,7.07
2022-08-26T10:27:23.272Z,7.97
2022-08-26T10:29:33.079Z,7.57
2022-08-26T10:33:43.967Z,7.47
2022-08-26T10:35:51.877Z,7.18
2022-08-26T10:37:58.143Z,7.07
2022-08-26T10:40:08.118Z,6.78
2022-08-26T10:42:22.077Z,5.80
2022-08-26T10:44:26.505Z,7.65
2022-08-26T10:46:38.996Z,6.45
2022-08-26T10:48:49.352Z,8.15
2022-08-26T10:50:57.221Z,7.47
2022-08-26T10:53:07.664Z,7.32
2022-08-26T10:55:19.898Z,6.80
2022-08-26T10:57:28.520Z,6.85
2022-08-26T10:59:47.720Z,6.60
2022-08-26T11:02:00.264Z,6.15
2022-08-26T11:04:16.887Z,6.72
2022-08-26T11:06:24.810Z,7.03
2022-08-26T11:08:28.985Z,7.10
2022-08-26T11:10:58.862Z,8.13
2022-08-26T11:13:03.109Z,6.35
2022-08-26T11:15:08.831Z,7.40
2022-08-26T11:17:13.232Z,7.47
2022-08-26T11:20:00.206Z,6.13
2022-08-26T11:22:07.773Z,7.18
2022-08-26T11:24:54.364Z,7.35
2022-08-26T11:26:59.995Z,7.85
2022-08-26T11:29:03.272Z,6.72
2022-08-26T11:31:09.587Z,7.70
2022-08-26T11:33:46.901Z,6.43
2022-08-26T11:35:51.161Z,7.15
2022-08-26T11:37:58.276Z,7.20
2022-08-26T11:40:02.871Z,6.72
2022-08-26T11:42:22.738Z,7.80
2022-08-26T11:44:28.952Z,7.47
2022-08-26T11:46:32.124Z,7.18
2022-08-26T11:48:37.109Z,7.22
2022-08-26T11:50:40.266Z,7.05
2022-08-26T11:52:52.389Z,6.60
2022-08-26T11:55:04.776Z,6.88
2022-08-26T11:57:12.367Z,6.75
2022-08-26T11:59:22.619Z,7.10
2022-08-26T12:01:31.184Z,6.85
2022-08-26T12:03:39.341Z,6.30
2022-08-26T12:05:44.858Z,6.78
2022-08-26T12:07:49.955Z,7.75
2022-08-26T12:09:58.199Z,7.00
2022-08-26T12:14:45.958Z,7.72
2022-08-26T12:16:49.120Z,7.93
2022-08-26T12:18:52.218Z,7.85
2022-08-26T12:20:55.436Z,8.98
2022-08-26T12:22:59.167Z,7.68
2022-08-26T12:25:07.106Z,7.70
2022-08-26T12:27:16.911Z,6.50
2022-08-26T12:29:27.183Z,7.07
2022-08-26T12:31:35.569Z,8.20
2022-08-26T12:33:38.882Z,7.22
2022-08-26T12:35:42.034Z,7.75
2022-08-26T12:37:49.061Z,7.43
2022-08-26T12:39:53.990Z,7.47
2022-08-26T12:41:58.734Z,7.15
2022-08-26T12:44:02.037Z,7.40
2022-08-26T12:46:06.610Z,6.75
2022-08-26T12:48:16.177Z,6.55
2022-08-26T12:52:25.536Z,6.40
2022-08-26T12:54:28.732Z,6.90
2022-08-26T12:56:37.271Z,6.53
2022-08-26T12:58:40.404Z,7.38
2022-08-26T13:00:45.241Z,6.63
2022-08-26T13:02:48.350Z,6.60
2022-08-26T13:05:00.761Z,7.03
2022-08-26T13:07:20.993Z,7.10
2022-08-26T13:09:30.784Z,6.55
2022-08-26T13:11:55.146Z,6.88
2022-08-26T13:14:06.901Z,7.43
2022-08-26T13:16:10.789Z,7.53
2022-08-26T13:18:14.048Z,6.57
2022-08-26T13:20:17.182Z,6.53
2022-08-26T13:22:23.114Z,6.68
2022-08-26T13:24:32.341Z,6.20
2022-08-26T13:26:35.441Z,6.25
2022-08-26T13:28:38.989Z,6.22
2022-08-26T13:30:47.787Z,6.80
2022-08-26T13:33:00.573Z,6.40
2022-08-26T13:35:06.132Z,5.78
2022-08-26T13:37:09.141Z,6.10
2022-08-26T13:39:12.818Z,6.53
2022-08-26T13:41:15.831Z,6.68
2022-08-26T13:43:21.945Z,6.28
2022-08-26T13:45:25.060Z,6.68
2022-08-26T13:47:30.781Z,6.00
2022-08-26T13:49:33.868Z,6.70
2022-08-26T13:51:37.408Z,7.13
2022-08-26T13:53:41.606Z,6.57
2022-08-26T13:55:45.201Z,6.93
2022-08-26T13:57:48.289Z,9.18
2022-08-26T13:59:51.610Z,8.40
2022-08-26T14:01:54.662Z,8.27
2022-08-26T14:04:00.919Z,8.45
2022-08-26T14:06:04.345Z,8.60
2022-08-26T14:08:08.052Z,8.90
2022-08-26T14:10:11.268Z,8.27
2022-08-26T14:12:14.366Z,8.85
2022-08-26T14:14:17.559Z,8.15
2022-08-26T14:16:24.706Z,7.88
2022-08-26T14:18:31.609Z,7.68
2022-08-26T14:20:38.250Z,7.40
2022-08-26T14:23:03.606Z,7.30
2022-08-26T14:25:07.829Z,7.38
2022-08-26T14:27:11.024Z,7.43
2022-08-26T14:29:16.193Z,7.82
2022-08-26T14:31:20.254Z,7.75
2022-08-26T14:35:37.786Z,7.65
2022-08-26T14:37:40.908Z,7.85
2022-08-26T14:39:44.131Z,7.82
2022-08-26T14:41:54.368Z,8.80
2022-08-26T14:44:00.212Z,8.05
2022-08-26T14:46:04.062Z,8.20
2022-08-26T14:48:07.205Z,8.30
2022-08-26T14:50:10.719Z,7.75
2022-08-26T14:52:18.790Z,8.25
2022-08-26T14:54:21.840Z,8.50
2022-08-26T14:56:25.140Z,8.57
2022-08-26T14:58:28.520Z,7.93
2022-08-26T15:02:41.061Z,8.35
2022-08-26T15:04:44.397Z,8.32
2022-08-26T15:06:48.207Z,8.85
2022-08-26T15:08:53.962Z,9.85
2022-08-26T15:10:57.026Z,10.23
2022-08-26T15:12:59.999Z,11.00
2022-08-26T15:15:03.256Z,9.75
2022-08-26T15:17:06.352Z,9.45
2022-08-26T15:19:09.540Z,8.70
2022-08-26T15:21:12.637Z,8.23
2022-08-26T15:23:16.123Z,9.68
2022-08-26T15:25:23.431Z,9.20
2022-08-26T15:27:26.636Z,9.23
2022-08-26T15:29:29.752Z,8.25
2022-08-26T15:31:35.051Z,8.38
2022-08-26T15:33:38.528Z,8.35
2022-08-26T15:35:41.596Z,8.68
2022-08-26T15:37:46.234Z,8.25
2022-08-26T15:39:49.541Z,9.02
2022-08-26T15:41:55.461Z,8.88
2022-08-26T15:43:59.992Z,8.10
2022-08-26T15:46:03.830Z,7.88
2022-08-26T15:48:06.827Z,7.93
2022-08-26T15:50:09.951Z,8.65
2022-08-26T15:52:13.157Z,8.75
2022-08-26T15:54:17.899Z,9.50
2022-08-26T15:56:20.922Z,8.25
2022-08-26T15:58:28.598Z,9.10
2022-08-26T16:00:31.648Z,8.77
2022-08-26T16:02:34.777Z,9.15
2022-08-26T16:04:38.325Z,8.82
2022-08-26T16:06:42.214Z,7.95
2022-08-26T16:08:45.785Z,8.77
2022-08-26T16:10:50.802Z,8.85
2022-08-26T16:12:53.893Z,8.15
2022-08-26T16:14:59.529Z,9.10
2022-08-26T16:17:02.650Z,8.23
2022-08-26T16:19:07.658Z,8.52
2022-08-26T16:21:16.141Z,8.88
2022-08-26T16:23:19.361Z,8.43
2022-08-26T16:25:22.672Z,7.28
2022-08-26T16:27:25.772Z,8.60
2022-08-26T16:29:28.925Z,7.72
2022-08-26T16:31:35.906Z,7.70
2022-08-26T16:33:39.015Z,7.18
2022-08-26T16:35:42.860Z,6.90
2022-08-26T16:37:45.950Z,6.22
2022-08-26T16:39:49.273Z,7.00
2022-08-26T16:41:52.299Z,7.60
2022-08-26T16:43:56.265Z,7.93
2022-08-26T16:45:59.367Z,8.48
2022-08-26T16:48:05.402Z,8.10
2022-08-26T16:50:09.859Z,8.20
2022-08-26T16:52:14.123Z,8.10
2022-08-26T16:54:17.369Z,8.10
2022-08-26T16:56:23.627Z,8.40
2022-08-26T16:58:36.484Z,8.70
2022-08-26T17:00:39.765Z,8.85
2022-08-26T17:02:43.126Z,8.63
2022-08-26T17:04:50.312Z,8.90
2022-08-26T17:06:53.903Z,9.13
2022-08-26T17:08:56.988Z,9.10
2022-08-26T17:11:00.381Z,10.15
2022-08-26T17:13:03.693Z,10.02
2022-08-26T17:15:09.121Z,9.52
2022-08-26T17:17:12.138Z,9.90
2022-08-26T17:19:16.372Z,9.35
2022-08-26T17:21:22.051Z,9.95
2022-08-26T17:23:25.086Z,10.85
2022-08-26T17:25:31.183Z,10.55
2022-08-26T17:27:34.210Z,11.05
2022-08-26T17:29:37.178Z,10.18
2022-08-26T17:31:40.364Z,10.07
2022-08-26T17:33:50.264Z,8.20
2022-08-26T17:35:56.377Z,9.20
2022-08-26T17:38:02.206Z,7.93
2022-08-26T17:40:07.565Z,8.98
2022-08-26T17:42:10.914Z,8.65
2022-08-26T17:44:13.990Z,9.02
2022-08-26T17:46:17.204Z,8.77
2022-08-26T17:48:20.190Z,8.77
2022-08-26T17:50:23.418Z,8.82
2022-08-26T17:52:26.408Z,7.18
2022-08-26T17:54:32.038Z,7.50
2022-08-26T17:56:35.097Z,7.28
2022-08-26T17:58:38.831Z,7.07
2022-08-26T18:00:43.918Z,7.45
2022-08-26T18:02:47.239Z,6.40
2022-08-26T18:04:50.246Z,7.57
2022-08-26T18:06:53.229Z,7.60
2022-08-26T18:08:56.180Z,8.45
2022-08-26T18:11:01.677Z,7.80
2022-08-26T18:13:04.672Z,8.10
2022-08-26T18:15:09.495Z,8.52
2022-08-26T18:17:12.612Z,7.90
2022-08-26T18:19:18.235Z,8.10
2022-08-26T18:21:24.204Z,7.93
2022-08-26T18:23:27.630Z,7.97
2022-08-26T18:25:34.621Z,8.40
2022-08-26T18:27:40.778Z,7.97
2022-08-26T18:29:45.402Z,8.32
2022-08-26T18:31:48.646Z,8.50
2022-08-26T18:33:51.891Z,8.35
2022-08-26T18:35:55.003Z,7.70
2022-08-26T18:38:10.514Z,9.00
2022-08-26T18:40:15.581Z,8.02
2022-08-26T18:42:18.944Z,9.68
2022-08-26T18:44:24.772Z,9.15
2022-08-26T18:46:28.609Z,8.30
2022-08-26T18:48:31.830Z,6.85
2022-08-26T18:50:38.089Z,6.68
2022-08-26T18:52:41.413Z,5.78
2022-08-26T18:54:44.680Z,4.32
2022-08-26T18:56:48.006Z,3.75
2022-08-26T18:58:51.273Z,3.80
2022-08-26T19:00:56.934Z,3.80
2022-08-26T19:02:59.977Z,3.60
2022-08-26T19:05:04.788Z,3.80
2022-08-26T19:07:08.396Z,3.58
2022-08-26T19:09:12.121Z,3.53
2022-08-26T19:11:18.801Z,3.35
2022-08-26T19:13:35.726Z,3.47
2022-08-26T19:15:39.598Z,3.67
2022-08-26T19:17:45.323Z,3.72
2022-08-26T19:19:48.266Z,3.40
2022-08-26T19:21:51.588Z,3.75
2022-08-26T19:23:56.840Z,3.40
2022-08-26T19:26:02.649Z,3.70
2022-08-26T19:28:05.643Z,4.32
2022-08-26T19:30:10.637Z,3.40
2022-08-26T19:32:13.584Z,3.60
2022-08-26T19:34:20.756Z,3.50
2022-08-26T19:36:25.887Z,3.63
2022-08-26T19:38:31.429Z,3.33
2022-08-26T19:40:36.006Z,3.88
2022-08-26T19:42:39.013Z,4.00
2022-08-26T19:44:41.993Z,4.40
2022-08-26T19:46:44.933Z,3.78
2022-08-26T19:48:54.031Z,3.67
2022-08-26T19:51:01.482Z,3.85
2022-08-26T19:53:04.476Z,3.55
2022-08-26T19:55:09.508Z,4.60
2022-08-26T19:57:12.490Z,4.47
2022-08-26T19:59:16.061Z,4.22
2022-08-26T20:01:19.433Z,4.10
2022-08-26T20:03:22.468Z,4.05
2022-08-26T20:05:26.328Z,4.38
2022-08-26T20:07:32.193Z,4.40
2022-08-26T20:09:36.528Z,4.07
2022-08-26T20:11:39.590Z,4.40
2022-08-26T20:13:43.792Z,4.10
2022-08-26T20:15:46.789Z,4.38
2022-08-26T20:17:49.913Z,4.97
2022-08-26T20:19:52.985Z,4.72
2022-08-26T20:21:55.998Z,4.38
2022-08-26T20:24:03.468Z,4.40
2022-08-26T20:26:06.840Z,4.35
2022-08-26T20:28:10.139Z,4.35
2022-08-26T20:30:14.572Z,4.82
2022-08-26T20:32:17.711Z,4.35
2022-08-26T20:34:21.179Z,4.60
2022-08-26T20:36:26.312Z,4.90
2022-08-26T20:38:29.399Z,4.65
2022-08-26T20:40:35.322Z,4.68
2022-08-26T20:42:38.563Z,4.22
2022-08-26T20:44:43.253Z,4.63
2022-08-26T20:46:58.490Z,4.80
2022-08-26T20:49:01.911Z,4.63
2022-08-26T20:51:05.753Z,5.03
2022-08-26T20:53:08.804Z,4.90
2022-08-26T20:55:12.052Z,4.97
2022-08-26T20:57:17.693Z,4.63
2022-08-26T20:59:21.410Z,4.80
2022-08-26T21:01:26.576Z,5.25
2022-08-26T21:03:29.877Z,4.78
2022-08-26T21:05:32.965Z,4.80
2022-08-26T21:07:36.006Z,4.70
2022-08-26T21:09:39.282Z,5.13
2022-08-26T21:11:44.229Z,5.15
2022-08-26T21:14:04.274Z,4.40
2022-08-26T21:16:08.140Z,4.72
2022-08-26T21:18:11.840Z,5.22
2022-08-26T21:20:14.996Z,4.82
2022-08-26T21:22:18.070Z,5.43
2022-08-26T21:24:21.514Z,5.25
2022-08-26T21:26:24.796Z,5.18
2022-08-26T21:28:27.861Z,5.55
2022-08-26T21:30:36.834Z,5.32
2022-08-26T21:32:40.087Z,5.40
2022-08-26T21:34:43.266Z,5.38
2022-08-26T21:36:48.008Z,5.20
2022-08-26T21:38:51.020Z,5.60
2022-08-26T21:40:58.182Z,5.18
2022-08-26T21:43:01.362Z,5.13
2022-08-26T21:45:05.962Z,5.50
2022-08-26T21:47:11.716Z,5.40
2022-08-26T21:49:17.058Z,5.32
2022-08-26T21:51:22.036Z,5.50
2022-08-26T21:53:25.201Z,6.00
2022-08-26T21:55:28.326Z,5.65
2022-08-26T21:57:33.031Z,5.25
2022-08-26T21:59:36.164Z,6.03
2022-08-26T22:01:39.641Z,6.13
2022-08-26T22:03:47.243Z,5.72
2022-08-26T22:05:50.967Z,5.85
2022-08-26T22:07:54.404Z,5.95
2022-08-26T22:09:57.477Z,5.75
2022-08-26T22:12:00.793Z,6.30
2022-08-26T22:14:04.025Z,6.15
2022-08-26T22:16:08.286Z,6.30
2022-08-26T22:18:11.443Z,6.20
2022-08-26T22:20:17.603Z,6.30
2022-08-26T22:22:20.968Z,6.65
2022-08-26T22:24:26.094Z,6.47
2022-08-26T22:26:31.497Z,6.05
2022-08-26T22:28:35.386Z,6.18
2022-08-26T22:30:40.826Z,6.47
2022-08-26T22:32:43.873Z,6.50
2022-08-26T22:34:48.053Z,6.00
2022-08-26T22:36:53.748Z,6.65
2022-08-26T22:38:57.265Z,6.82
2022-08-26T22:41:00.352Z,6.57
2022-08-26T22:43:04.966Z,6.60
2022-08-26T22:45:09.747Z,6.68
2022-08-26T22:47:12.845Z,7.15
2022-08-26T22:49:16.543Z,7.00
2022-08-26T22:51:20.335Z,7.40
2022-08-26T22:53:26.088Z,6.65
2022-08-26T22:55:29.180Z,7.32
2022-08-26T22:57:32.290Z,7.30
2022-08-26T22:59:35.333Z,6.90
2022-08-26T23:01:40.381Z,6.28
2022-08-26T23:03:43.757Z,7.28
2022-08-26T23:05:46.984Z,6.93
2022-08-26T23:07:53.958Z,7.10
2022-08-26T23:09:59.784Z,6.95
2022-08-26T23:12:03.584Z,7.00
2022-08-26T23:14:07.120Z,7.15
2022-08-26T23:16:12.434Z,7.80
2022-08-26T23:18:15.910Z,6.80
2022-08-26T23:20:20.093Z,6.55
2022-08-26T23:22:23.157Z,6.75
2022-08-26T23:24:26.259Z,6.95
2022-08-26T23:26:32.136Z,7.78
2022-08-26T23:28:35.940Z,7.38
2022-08-26T23:30:39.098Z,7.40
2022-08-26T23:32:42.306Z,7.38
2022-08-26T23:34:45.744Z,7.30
2022-08-26T23:36:50.088Z,7.82
2022-08-26T23:38:53.358Z,7.90
2022-08-26T23:40:56.375Z,7.50
2022-08-26T23:43:06.469Z,7.85
2022-08-26T23:45:11.424Z,8.20
2022-08-26T23:47:15.164Z,7.60
2022-08-26T23:49:18.177Z,7.78
2022-08-26T23:51:21.231Z,7.75
2022-08-26T23:53:24.469Z,7.97
2022-08-26T23:55:28.030Z,7.55
2022-08-26T23:57:31.072Z,8.40
2022-08-26T23:59:38.283Z,8.18
